createdAt,value
2022-07-26T00:00:49.595Z,99.90
2022-07-26T00:03:35.221Z,99.90
2022-07-26T00:06:20.609Z,99.90
2022-07-26T00:09:06.504Z,99.90
2022-07-26T00:12:16.884Z,99.90
2022-07-26T00:15:01.990Z,99.90
2022-07-26T00:17:47.241Z,99.90
2022-07-26T00:20:32.467Z,99.90
2022-07-26T00:23:19.676Z,99.90
2022-07-26T00:26:05.013Z,99.90
2022-07-26T00:28:50.660Z,99.90
2022-07-26T00:31:35.890Z,99.90
2022-07-26T00:34:21.395Z,99.90
2022-07-26T00:37:06.571Z,99.90
2022-07-26T00:39:51.906Z,99.90
2022-07-26T00:42:37.320Z,99.90
2022-07-26T00:45:22.800Z,99.90
2022-07-26T00:48:08.309Z,99.90
2022-07-26T00:50:54.487Z,99.90
2022-07-26T00:53:39.511Z,99.90
2022-07-26T00:56:25.827Z,99.90
2022-07-26T00:59:11.691Z,99.90
2022-07-26T01:01:57.651Z,99.90
2022-07-26T01:04:44.802Z,99.90
2022-07-26T01:07:30.106Z,99.90
2022-07-26T01:10:15.134Z,99.90
2022-07-26T01:13:00.252Z,99.90
2022-07-26T01:15:45.342Z,99.90
2022-07-26T01:18:30.955Z,99.90
2022-07-26T01:21:16.089Z,99.90
2022-07-26T01:24:01.358Z,99.90
2022-07-26T01:26:46.498Z,99.90
2022-07-26T01:29:35.966Z,99.90
2022-07-26T01:32:21.782Z,99.90
2022-07-26T01:35:07.801Z,99.90
2022-07-26T01:37:53.310Z,99.90
2022-07-26T01:40:38.749Z,99.90
2022-07-26T01:43:23.901Z,99.90
2022-07-26T01:46:09.488Z,99.90
2022-07-26T01:48:55.297Z,99.90
2022-07-26T01:51:40.494Z,99.90
2022-07-26T01:54:25.570Z,99.90
2022-07-26T01:57:10.578Z,99.90
2022-07-26T01:59:55.805Z,99.90
2022-07-26T02:02:40.942Z,99.90
2022-07-26T02:05:26.437Z,99.90
2022-07-26T02:08:12.155Z,99.90
2022-07-26T02:11:02.013Z,99.90
2022-07-26T02:13:53.021Z,99.90
2022-07-26T02:16:38.688Z,99.90
2022-07-26T02:19:23.803Z,99.90
2022-07-26T02:22:08.900Z,99.90
2022-07-26T02:24:54.161Z,99.90
2022-07-26T02:27:39.039Z,99.90
2022-07-26T02:30:24.299Z,99.90
2022-07-26T02:33:09.744Z,99.90
2022-07-26T02:35:55.620Z,99.90
2022-07-26T02:38:40.974Z,99.90
2022-07-26T02:41:26.448Z,99.90
2022-07-26T02:44:12.213Z,99.90
2022-07-26T02:46:57.755Z,99.90
2022-07-26T02:49:43.202Z,99.90
2022-07-26T02:52:28.374Z,99.90
2022-07-26T02:55:19.200Z,99.90
2022-07-26T02:58:04.520Z,99.90
2022-07-26T03:00:50.076Z,99.90
2022-07-26T03:03:36.554Z,99.90
2022-07-26T03:06:22.413Z,99.90
2022-07-26T03:09:07.559Z,99.90
2022-07-26T03:11:53.273Z,99.90
2022-07-26T03:14:38.904Z,99.90
2022-07-26T03:17:23.836Z,99.90
2022-07-26T03:20:09.437Z,99.90
2022-07-26T03:22:54.424Z,99.90
2022-07-26T03:25:39.985Z,99.90
2022-07-26T03:28:25.170Z,99.90
2022-07-26T03:31:11.859Z,99.90
2022-07-26T03:34:02.793Z,99.90
2022-07-26T03:36:48.634Z,99.90
2022-07-26T03:39:34.370Z,99.90
2022-07-26T03:42:19.975Z,99.90
2022-07-26T03:45:05.426Z,99.90
2022-07-26T03:47:50.842Z,99.90
2022-07-26T03:50:36.618Z,99.90
2022-07-26T03:53:21.899Z,99.90
2022-07-26T03:56:25.804Z,99.90
2022-07-26T03:59:11.397Z,99.90
2022-07-26T04:01:56.807Z,99.90
2022-07-26T04:04:42.394Z,99.90
2022-07-26T04:07:27.394Z,99.90
2022-07-26T04:10:13.518Z,99.90
2022-07-26T04:12:58.777Z,99.90
2022-07-26T04:15:44.296Z,99.90
2022-07-26T04:18:29.425Z,99.90
2022-07-26T04:21:14.471Z,99.90
2022-07-26T04:24:00.105Z,99.90
2022-07-26T04:26:46.412Z,99.90
2022-07-26T04:29:31.642Z,99.90
2022-07-26T04:32:16.612Z,99.90
2022-07-26T04:35:01.679Z,99.90
2022-07-26T04:37:46.825Z,99.90
2022-07-26T04:40:34.920Z,99.90
2022-07-26T04:43:26.253Z,99.90
2022-07-26T04:46:11.311Z,99.90
2022-07-26T04:48:57.019Z,99.90
2022-07-26T04:51:42.649Z,99.90
2022-07-26T04:54:28.289Z,99.90
2022-07-26T04:57:13.571Z,99.90
2022-07-26T05:00:20.233Z,99.90
2022-07-26T05:03:04.120Z,99.90
2022-07-26T05:05:49.827Z,99.90
2022-07-26T05:08:34.983Z,99.90
2022-07-26T05:11:19.969Z,99.90
2022-07-26T05:14:05.260Z,99.90
2022-07-26T05:16:50.877Z,99.90
2022-07-26T05:19:36.710Z,99.90
2022-07-26T05:22:22.095Z,99.90
2022-07-26T05:25:07.808Z,99.90
2022-07-26T05:27:53.649Z,99.90
2022-07-26T05:30:38.926Z,99.90
2022-07-26T05:33:24.656Z,99.90
2022-07-26T05:36:10.386Z,99.90
2022-07-26T05:38:56.017Z,99.90
2022-07-26T05:41:41.083Z,99.90
2022-07-26T05:44:26.517Z,99.90
2022-07-26T05:47:12.014Z,99.90
2022-07-26T05:49:57.007Z,99.90
2022-07-26T05:52:42.207Z,99.90
2022-07-26T05:55:27.292Z,99.90
2022-07-26T05:58:12.836Z,99.90
2022-07-26T06:00:57.932Z,99.90
2022-07-26T06:03:43.564Z,99.90
2022-07-26T06:06:29.191Z,99.90
2022-07-26T06:09:14.151Z,99.90
2022-07-26T06:11:59.759Z,99.90
2022-07-26T06:14:44.879Z,99.90
2022-07-26T06:17:30.617Z,99.90
2022-07-26T06:20:16.162Z,99.90
2022-07-26T06:23:01.268Z,99.90
2022-07-26T06:25:46.316Z,99.90
2022-07-26T06:28:31.535Z,99.90
2022-07-26T06:31:20.244Z,99.90
2022-07-26T06:34:05.889Z,99.90
2022-07-26T06:36:52.678Z,99.90
2022-07-26T06:39:38.240Z,99.90
2022-07-26T06:42:23.390Z,99.90
2022-07-26T06:45:09.091Z,99.90
2022-07-26T06:47:54.536Z,99.90
2022-07-26T06:50:41.538Z,99.90
2022-07-26T06:53:26.721Z,99.90
2022-07-26T06:56:14.908Z,99.90
2022-07-26T06:59:00.387Z,99.90
2022-07-26T07:01:57.855Z,99.90
2022-07-26T07:04:45.823Z,99.90
2022-07-26T07:07:31.306Z,99.90
2022-07-26T07:10:19.273Z,99.90
2022-07-26T07:13:08.233Z,99.90
2022-07-26T07:15:53.733Z,99.90
2022-07-26T07:18:40.193Z,99.90
2022-07-26T07:21:25.572Z,99.90
2022-07-26T07:24:11.852Z,99.90
2022-07-26T07:26:57.323Z,99.90
2022-07-26T07:29:43.344Z,99.90
2022-07-26T07:32:28.947Z,99.90
2022-07-26T07:35:14.514Z,99.90
2022-07-26T07:38:00.464Z,99.90
2022-07-26T07:40:45.647Z,99.90
2022-07-26T07:43:31.067Z,99.90
2022-07-26T07:46:16.344Z,99.90
2022-07-26T07:49:02.033Z,99.90
2022-07-26T07:51:47.634Z,99.90
2022-07-26T07:54:33.056Z,99.90
2022-07-26T07:57:18.202Z,99.90
2022-07-26T08:00:05.051Z,99.90
2022-07-26T08:02:50.579Z,99.90
2022-07-26T08:05:36.229Z,99.90
2022-07-26T08:08:25.897Z,99.90
2022-07-26T08:11:11.536Z,99.90
2022-07-26T08:13:57.558Z,99.90
2022-07-26T08:16:44.772Z,99.90
2022-07-26T08:19:41.685Z,99.90
2022-07-26T08:22:28.135Z,99.90
2022-07-26T08:25:13.302Z,99.90
2022-07-26T08:28:06.062Z,99.90
2022-07-26T08:30:51.375Z,99.90
2022-07-26T08:33:36.415Z,99.90
2022-07-26T08:36:31.903Z,99.90
2022-07-26T08:39:17.609Z,99.90
2022-07-26T08:42:04.127Z,99.90
2022-07-26T08:44:50.168Z,99.90
2022-07-26T08:47:46.275Z,99.90
2022-07-26T08:50:41.105Z,99.90
2022-07-26T08:53:29.211Z,99.90
2022-07-26T08:56:15.313Z,99.90
2022-07-26T08:59:02.796Z,99.90
2022-07-26T09:01:59.196Z,99.90
2022-07-26T09:04:46.342Z,99.90
2022-07-26T09:07:33.111Z,99.90
2022-07-26T09:10:18.413Z,99.90
2022-07-26T09:13:03.357Z,99.90
2022-07-26T09:15:48.891Z,99.90
2022-07-26T09:18:34.167Z,99.90
2022-07-26T09:21:29.406Z,99.90
2022-07-26T09:24:29.528Z,99.90
2022-07-26T09:27:16.636Z,99.90
2022-07-26T09:30:05.973Z,99.90
2022-07-26T09:32:59.049Z,99.90
2022-07-26T09:35:59.528Z,99.90
2022-07-26T09:38:46.088Z,99.90
2022-07-26T09:41:32.606Z,99.90
2022-07-26T09:44:21.009Z,99.90
2022-07-26T09:47:06.681Z,99.90
2022-07-26T09:50:11.380Z,99.90
2022-07-26T09:52:58.123Z,99.90
2022-07-26T09:55:46.468Z,99.90
2022-07-26T09:58:31.715Z,99.90
2022-07-26T10:01:17.202Z,99.90
2022-07-26T10:04:03.485Z,99.90
2022-07-26T10:06:49.222Z,99.90
2022-07-26T10:09:38.157Z,99.90
2022-07-26T10:12:30.179Z,99.90
2022-07-26T10:15:35.289Z,99.90
2022-07-26T10:18:36.237Z,99.90
2022-07-26T10:21:22.501Z,99.90
2022-07-26T10:24:23.872Z,99.90
2022-07-26T10:27:29.105Z,99.90
2022-07-26T10:30:22.441Z,99.90
2022-07-26T10:33:10.119Z,99.90
2022-07-26T10:35:55.386Z,99.90
2022-07-26T10:38:40.476Z,99.90
2022-07-26T10:41:43.217Z,99.90
2022-07-26T10:44:29.945Z,99.90
2022-07-26T10:47:18.867Z,99.90
2022-07-26T10:50:05.689Z,99.90
2022-07-26T10:52:58.863Z,99.90
2022-07-26T10:55:55.017Z,99.90
2022-07-26T10:58:44.048Z,99.90
2022-07-26T11:01:35.327Z,99.90
2022-07-26T11:04:23.149Z,99.90
2022-07-26T11:07:08.458Z,99.90
2022-07-26T11:09:57.078Z,99.90
2022-07-26T11:12:42.287Z,99.90
2022-07-26T11:15:27.481Z,99.90
2022-07-26T11:18:14.446Z,99.90
2022-07-26T11:21:09.911Z,99.90
2022-07-26T11:24:01.718Z,99.90
2022-07-26T11:26:47.187Z,99.90
2022-07-26T11:29:38.140Z,99.90
2022-07-26T11:32:25.624Z,99.90
2022-07-26T11:35:11.153Z,99.90
2022-07-26T11:38:07.905Z,99.90
2022-07-26T11:40:56.965Z,99.90
2022-07-26T11:43:42.480Z,99.90
2022-07-26T11:46:34.312Z,99.90
2022-07-26T11:49:19.644Z,99.90
2022-07-26T11:52:05.300Z,99.90
2022-07-26T11:54:52.483Z,99.90
2022-07-26T11:57:37.478Z,99.90
2022-07-26T12:00:23.565Z,99.90
2022-07-26T12:03:08.751Z,99.90
2022-07-26T12:06:07.518Z,99.90
2022-07-26T12:08:56.824Z,99.90
2022-07-26T12:11:44.265Z,99.90
2022-07-26T12:14:31.405Z,99.90
2022-07-26T12:17:18.000Z,99.90
2022-07-26T12:20:13.882Z,99.90
2022-07-26T12:23:05.015Z,99.90
2022-07-26T12:25:50.704Z,99.90
2022-07-26T12:28:42.640Z,99.90
2022-07-26T12:31:32.046Z,99.90
2022-07-26T12:34:21.275Z,99.90
2022-07-26T12:37:07.618Z,99.90
2022-07-26T12:40:03.271Z,99.90
2022-07-26T12:42:53.779Z,99.90
2022-07-26T12:45:43.535Z,99.90
2022-07-26T12:48:29.051Z,99.90
2022-07-26T12:51:14.525Z,99.90
2022-07-26T12:53:59.602Z,99.90
2022-07-26T12:56:46.352Z,99.90
2022-07-26T12:59:34.258Z,99.90
2022-07-26T13:02:20.438Z,99.90
2022-07-26T13:05:06.313Z,99.90
2022-07-26T13:07:52.174Z,99.90
2022-07-26T13:10:37.920Z,99.90
2022-07-26T13:13:23.493Z,99.90
2022-07-26T13:16:12.053Z,99.90
2022-07-26T13:18:57.780Z,99.90
2022-07-26T13:21:43.231Z,99.90
2022-07-26T13:24:29.240Z,99.90
2022-07-26T13:27:15.246Z,99.90
2022-07-26T13:30:00.749Z,99.90
2022-07-26T13:32:46.153Z,99.90
2022-07-26T13:35:31.233Z,99.90
2022-07-26T13:38:19.124Z,99.90
2022-07-26T13:41:04.660Z,99.90
2022-07-26T13:43:51.738Z,99.40
2022-07-26T13:46:36.951Z,99.90
2022-07-26T13:49:23.500Z,99.90
2022-07-26T13:52:13.559Z,99.90
2022-07-26T13:55:01.470Z,99.90
2022-07-26T13:57:53.223Z,99.70
2022-07-26T14:00:42.808Z,99.50
2022-07-26T14:03:32.095Z,99.30
2022-07-26T14:06:20.359Z,99.90
2022-07-26T14:09:10.393Z,99.90
2022-07-26T14:11:56.184Z,99.90
2022-07-26T14:14:41.270Z,99.90
2022-07-26T14:17:26.879Z,99.40
2022-07-26T14:20:12.196Z,98.20
2022-07-26T14:22:57.928Z,98.00
2022-07-26T14:25:43.557Z,96.70
2022-07-26T14:28:28.739Z,95.80
2022-07-26T14:31:14.767Z,96.50
2022-07-26T14:34:00.901Z,96.90
2022-07-26T14:36:46.470Z,97.80
2022-07-26T14:39:31.917Z,97.10
2022-07-26T14:42:17.339Z,96.50
2022-07-26T14:45:02.428Z,95.80
2022-07-26T14:47:47.740Z,96.10
2022-07-26T14:50:53.090Z,95.20
2022-07-26T14:53:38.534Z,95.30
2022-07-26T14:56:24.180Z,95.90
2022-07-26T14:59:09.736Z,95.90
2022-07-26T15:01:54.783Z,95.80
2022-07-26T15:04:40.645Z,96.00
2022-07-26T15:07:26.106Z,96.90
2022-07-26T15:10:12.413Z,96.40
2022-07-26T15:12:58.161Z,96.50
2022-07-26T15:15:43.581Z,96.70
2022-07-26T15:18:28.663Z,96.40
2022-07-26T15:21:17.143Z,96.80
2022-07-26T15:24:03.950Z,96.50
2022-07-26T15:26:49.478Z,97.00
2022-07-26T15:29:36.033Z,97.10
2022-07-26T15:32:21.348Z,96.90
2022-07-26T15:35:07.467Z,96.60
2022-07-26T15:38:01.543Z,96.60
2022-07-26T15:40:46.855Z,96.80
2022-07-26T15:43:44.131Z,96.90
2022-07-26T15:46:34.269Z,96.70
2022-07-26T15:49:20.338Z,96.70
2022-07-26T15:52:06.170Z,96.30
2022-07-26T15:54:52.872Z,95.80
2022-07-26T15:57:39.749Z,95.10
2022-07-26T16:00:25.326Z,95.00
2022-07-26T16:03:11.444Z,96.70
2022-07-26T16:05:56.912Z,97.30
2022-07-26T16:08:58.902Z,97.40
2022-07-26T16:11:48.126Z,98.40
2022-07-26T16:14:33.528Z,98.60
2022-07-26T16:17:19.093Z,98.70
2022-07-26T16:20:05.157Z,98.70
2022-07-26T16:22:50.432Z,99.30
2022-07-26T16:25:35.727Z,99.70
2022-07-26T16:28:21.299Z,99.30
2022-07-26T16:31:06.964Z,99.80
2022-07-26T16:33:52.557Z,99.80
2022-07-26T16:36:38.368Z,99.90
2022-07-26T16:39:23.763Z,99.90
2022-07-26T16:42:08.862Z,99.90
2022-07-26T16:44:53.920Z,99.90
2022-07-26T16:47:39.601Z,99.90
2022-07-26T16:50:27.192Z,99.90
2022-07-26T16:53:13.496Z,99.90
2022-07-26T16:55:58.847Z,99.90
2022-07-26T16:58:44.532Z,99.90
2022-07-26T17:01:29.586Z,99.90
2022-07-26T17:04:16.640Z,99.90
2022-07-26T17:07:24.049Z,99.90
2022-07-26T17:10:09.327Z,99.90
2022-07-26T17:12:54.617Z,99.90
2022-07-26T17:15:40.291Z,99.90
2022-07-26T17:18:26.051Z,99.90
2022-07-26T17:21:11.535Z,99.90
2022-07-26T17:23:56.645Z,99.90
2022-07-26T17:26:42.377Z,99.90
2022-07-26T17:29:28.029Z,99.90
2022-07-26T17:32:13.670Z,99.90
2022-07-26T17:34:58.843Z,99.90
2022-07-26T17:37:44.443Z,99.90
2022-07-26T17:40:31.561Z,99.90
2022-07-26T17:43:17.780Z,99.90
2022-07-26T17:46:02.838Z,99.90
2022-07-26T17:48:48.503Z,99.90
2022-07-26T17:51:34.226Z,99.90
2022-07-26T17:54:19.763Z,99.90
2022-07-26T17:57:06.310Z,99.90
2022-07-26T17:59:51.412Z,99.90
2022-07-26T18:02:36.694Z,99.90
2022-07-26T18:05:22.352Z,99.90
2022-07-26T18:08:07.961Z,99.90
2022-07-26T18:10:54.510Z,99.90
2022-07-26T18:13:40.287Z,99.90
2022-07-26T18:16:27.058Z,99.90
2022-07-26T18:19:12.830Z,99.90
2022-07-26T18:21:59.915Z,99.90
2022-07-26T18:24:48.405Z,99.90
2022-07-26T18:27:34.060Z,99.90
2022-07-26T18:30:19.670Z,99.90
2022-07-26T18:33:05.565Z,99.90
2022-07-26T18:35:50.797Z,99.90
2022-07-26T18:38:37.209Z,99.90
2022-07-26T18:41:22.171Z,99.90
2022-07-26T18:44:07.854Z,99.90
2022-07-26T18:46:53.424Z,99.90
2022-07-26T18:49:38.951Z,99.90
2022-07-26T18:52:31.936Z,99.90
2022-07-26T18:55:18.212Z,99.90
2022-07-26T18:58:06.861Z,99.90
2022-07-26T19:00:53.002Z,99.90
2022-07-26T19:03:38.837Z,99.90
2022-07-26T19:06:24.866Z,99.90
2022-07-26T19:09:10.367Z,99.90
2022-07-26T19:11:58.094Z,99.90
2022-07-26T19:14:43.244Z,99.90
2022-07-26T19:17:30.036Z,99.90
2022-07-26T19:20:15.651Z,99.90
2022-07-26T19:23:01.225Z,99.90
2022-07-26T19:25:47.246Z,99.90
2022-07-26T19:28:32.825Z,99.90
2022-07-26T19:31:18.535Z,99.90
2022-07-26T19:34:04.043Z,99.90
2022-07-26T19:36:51.022Z,99.90
2022-07-26T19:39:36.491Z,99.90
2022-07-26T19:42:21.828Z,99.90
2022-07-26T19:45:07.688Z,99.90
2022-07-26T19:47:53.159Z,99.90
2022-07-26T19:50:39.014Z,99.90
2022-07-26T19:53:24.555Z,99.90
2022-07-26T19:56:09.615Z,99.90
2022-07-26T19:58:55.526Z,99.90
2022-07-26T20:01:40.940Z,99.90
2022-07-26T20:04:26.829Z,99.90
2022-07-26T20:07:12.981Z,99.90
2022-07-26T20:09:58.476Z,99.90
2022-07-26T20:12:44.202Z,99.90
2022-07-26T20:15:29.520Z,99.90
2022-07-26T20:18:14.816Z,99.90
2022-07-26T20:21:00.368Z,99.90
2022-07-26T20:23:46.019Z,99.90
2022-07-26T20:26:31.684Z,99.90
2022-07-26T20:29:17.426Z,99.90
2022-07-26T20:32:02.910Z,99.90
2022-07-26T20:34:48.353Z,99.90
2022-07-26T20:37:33.514Z,99.90
2022-07-26T20:40:19.043Z,99.90
2022-07-26T20:43:05.125Z,99.90
2022-07-26T20:45:50.735Z,99.90
2022-07-26T20:48:36.375Z,99.90
2022-07-26T20:51:22.019Z,99.90
2022-07-26T20:54:08.662Z,99.90
2022-07-26T20:56:54.070Z,99.90
2022-07-26T20:59:39.283Z,99.90
2022-07-26T21:02:25.050Z,99.90
2022-07-26T21:05:10.804Z,99.90
2022-07-26T21:07:59.390Z,99.90
2022-07-26T21:10:46.032Z,99.90
2022-07-26T21:13:34.103Z,99.90
2022-07-26T21:16:19.632Z,99.90
2022-07-26T21:19:05.730Z,99.90
2022-07-26T21:21:54.553Z,99.90
2022-07-26T21:24:39.883Z,99.90
2022-07-26T21:27:26.437Z,99.90
2022-07-26T21:30:12.211Z,99.90
2022-07-26T21:32:57.561Z,99.90
2022-07-26T21:35:43.284Z,99.90
2022-07-26T21:38:31.937Z,99.90
2022-07-26T21:41:17.321Z,99.90
2022-07-26T21:44:02.704Z,99.90
2022-07-26T21:46:54.879Z,99.90
2022-07-26T21:49:40.278Z,99.90
2022-07-26T21:52:25.797Z,99.90
2022-07-26T21:55:11.484Z,99.90
2022-07-26T21:58:03.471Z,99.90
2022-07-26T22:00:49.209Z,99.90
2022-07-26T22:03:35.760Z,99.90
2022-07-26T22:06:21.353Z,99.90
2022-07-26T22:09:06.523Z,99.90
2022-07-26T22:11:52.195Z,99.90
2022-07-26T22:14:38.354Z,99.90
2022-07-26T22:17:23.366Z,99.90
2022-07-26T22:20:09.396Z,99.90
2022-07-26T22:22:54.379Z,99.90
2022-07-26T22:25:39.884Z,99.90
2022-07-26T22:28:25.220Z,99.90
2022-07-26T22:31:10.459Z,99.90
2022-07-26T22:33:55.960Z,99.90
2022-07-26T22:36:45.403Z,99.90
2022-07-26T22:39:31.263Z,99.90
2022-07-26T22:42:16.897Z,99.90
2022-07-26T22:45:03.297Z,99.90
2022-07-26T22:47:56.701Z,99.90
2022-07-26T22:50:42.279Z,99.90
2022-07-26T22:53:27.529Z,99.90
2022-07-26T22:56:13.043Z,99.90
2022-07-26T22:59:04.611Z,99.90
2022-07-26T23:01:50.220Z,99.90
2022-07-26T23:04:35.313Z,99.90
2022-07-26T23:07:20.664Z,99.90
2022-07-26T23:10:07.577Z,99.90
2022-07-26T23:12:54.080Z,99.90
2022-07-26T23:15:39.632Z,99.90
2022-07-26T23:18:24.724Z,99.90
2022-07-26T23:21:09.794Z,99.90
2022-07-26T23:23:54.921Z,99.90
2022-07-26T23:26:40.107Z,99.90
2022-07-26T23:29:25.634Z,99.90
2022-07-26T23:32:10.743Z,99.90
2022-07-26T23:34:55.817Z,99.90
2022-07-26T23:37:41.037Z,99.90
2022-07-26T23:40:26.638Z,99.90
2022-07-26T23:43:11.800Z,99.90
2022-07-26T23:45:57.454Z,99.90
2022-07-26T23:48:43.105Z,99.90
2022-07-26T23:51:28.228Z,99.90
2022-07-26T23:54:13.711Z,99.90
2022-07-26T23:56:58.899Z,99.90
2022-07-26T23:59:44.198Z,99.90
